sensor_id;sensor_type;location;lat;lon;timestamp;P1;durP1;ratioP1;P2;durP2;ratioP2
15466;SDS011;7834;49.452;11.056;2024-02-21T00:00:49;16.05;;;5.38;;
15466;SDS011;7834;49.452;11.056;2024-02-21T00:03:15;13.10;;;5.27;;
15466;SDS011;7834;49.452;11.056;2024-02-21T00:05:40;13.50;;;5.07;;
15466;SDS011;7834;49.452;11.056;2024-02-21T00:08:06;13.40;;;4.70;;
15466;SDS011;7834;49.452;11.056;2024-02-21T00:10:34;12.55;;;4.97;;
15466;SDS011;7834;49.452;11.056;2024-02-21T00:13:00;14.05;;;5.35;;
15466;SDS011;7834;49.452;11.056;2024-02-21T00:15:26;12.57;;;5.20;;
15466;SDS011;7834;49.452;11.056;2024-02-21T00:20:39;16.95;;;5.32;;
15466;SDS011;7834;49.452;11.056;2024-02-21T00:23:05;13.63;;;5.00;;
15466;SDS011;7834;49.452;11.056;2024-02-21T00:25:30;17.83;;;5.68;;
15466;SDS011;7834;49.452;11.056;2024-02-21T00:27:56;13.13;;;5.07;;
15466;SDS011;7834;49.452;11.056;2024-02-21T00:30:21;12.88;;;5.30;;
15466;SDS011;7834;49.452;11.056;2024-02-21T00:32:47;14.63;;;5.27;;
15466;SDS011;7834;49.452;11.056;2024-02-21T00:35:13;12.20;;;5.30;;
15466;SDS011;7834;49.452;11.056;2024-02-21T00:37:39;12.27;;;4.95;;
15466;SDS011;7834;49.452;11.056;2024-02-21T00:40:04;14.47;;;5.27;;
15466;SDS011;7834;49.452;11.056;2024-02-21T00:42:30;11.77;;;5.03;;
15466;SDS011;7834;49.452;11.056;2024-02-21T00:44:56;13.33;;;5.30;;
15466;SDS011;7834;49.452;11.056;2024-02-21T00:47:21;12.95;;;5.07;;
15466;SDS011;7834;49.452;11.056;2024-02-21T00:49:47;12.47;;;5.37;;
15466;SDS011;7834;49.452;11.056;2024-02-21T00:52:12;13.70;;;5.30;;
15466;SDS011;7834;49.452;11.056;2024-02-21T00:54:38;14.10;;;5.05;;
15466;SDS011;7834;49.452;11.056;2024-02-21T00:57:04;13.60;;;5.85;;
15466;SDS011;7834;49.452;11.056;2024-02-21T00:59:29;16.33;;;5.37;;
15466;SDS011;7834;49.452;11.056;2024-02-21T01:01:55;13.57;;;5.10;;
15466;SDS011;7834;49.452;11.056;2024-02-21T01:04:26;14.13;;;5.30;;
15466;SDS011;7834;49.452;11.056;2024-02-21T01:06:52;14.83;;;5.27;;
15466;SDS011;7834;49.452;11.056;2024-02-21T01:09:17;14.20;;;5.32;;
15466;SDS011;7834;49.452;11.056;2024-02-21T01:11:43;15.80;;;5.40;;
15466;SDS011;7834;49.452;11.056;2024-02-21T01:14:08;12.00;;;5.20;;
15466;SDS011;7834;49.452;11.056;2024-02-21T01:16:34;11.02;;;5.60;;
15466;SDS011;7834;49.452;11.056;2024-02-21T01:18:59;13.77;;;5.57;;
15466;SDS011;7834;49.452;11.056;2024-02-21T01:21:25;13.93;;;5.40;;
15466;SDS011;7834;49.452;11.056;2024-02-21T01:23:50;13.17;;;5.37;;
15466;SDS011;7834;49.452;11.056;2024-02-21T01:26:16;13.20;;;5.40;;
15466;SDS011;7834;49.452;11.056;2024-02-21T01:28:45;14.15;;;5.22;;
15466;SDS011;7834;49.452;11.056;2024-02-21T01:31:10;13.57;;;5.05;;
15466;SDS011;7834;49.452;11.056;2024-02-21T01:33:36;11.20;;;4.70;;
15466;SDS011;7834;49.452;11.056;2024-02-21T01:36:04;13.23;;;5.10;;
15466;SDS011;7834;49.452;11.056;2024-02-21T01:38:32;11.50;;;4.90;;
15466;SDS011;7834;49.452;11.056;2024-02-21T01:40:57;12.25;;;4.80;;
15466;SDS011;7834;49.452;11.056;2024-02-21T01:43:23;15.03;;;5.30;;
15466;SDS011;7834;49.452;11.056;2024-02-21T01:45:49;11.38;;;4.95;;
15466;SDS011;7834;49.452;11.056;2024-02-21T01:48:16;13.40;;;4.97;;
15466;SDS011;7834;49.452;11.056;2024-02-21T01:50:43;12.53;;;4.83;;
15466;SDS011;7834;49.452;11.056;2024-02-21T01:53:08;12.90;;;4.80;;
15466;SDS011;7834;49.452;11.056;2024-02-21T01:55:34;11.67;;;5.13;;
15466;SDS011;7834;49.452;11.056;2024-02-21T01:58:00;14.77;;;4.97;;
15466;SDS011;7834;49.452;11.056;2024-02-21T02:00:26;13.32;;;5.22;;
15466;SDS011;7834;49.452;11.056;2024-02-21T02:02:52;12.07;;;4.97;;
15466;SDS011;7834;49.452;11.056;2024-02-21T02:05:18;13.10;;;5.60;;
15466;SDS011;7834;49.452;11.056;2024-02-21T02:07:46;13.88;;;5.00;;
15466;SDS011;7834;49.452;11.056;2024-02-21T02:10:12;11.27;;;4.90;;
15466;SDS011;7834;49.452;11.056;2024-02-21T02:12:37;13.37;;;4.80;;
15466;SDS011;7834;49.452;11.056;2024-02-21T02:15:03;13.55;;;5.15;;
15466;SDS011;7834;49.452;11.056;2024-02-21T02:17:32;14.87;;;5.37;;
15466;SDS011;7834;49.452;11.056;2024-02-21T02:19:57;14.95;;;5.10;;
15466;SDS011;7834;49.452;11.056;2024-02-21T02:22:25;12.60;;;4.87;;
15466;SDS011;7834;49.452;11.056;2024-02-21T02:24:53;12.30;;;4.93;;
15466;SDS011;7834;49.452;11.056;2024-02-21T02:27:19;16.80;;;5.40;;
15466;SDS011;7834;49.452;11.056;2024-02-21T02:29:44;14.55;;;5.00;;
15466;SDS011;7834;49.452;11.056;2024-02-21T02:32:11;14.27;;;5.27;;
15466;SDS011;7834;49.452;11.056;2024-02-21T02:34:36;13.20;;;5.30;;
15466;SDS011;7834;49.452;11.056;2024-02-21T02:37:02;14.15;;;5.22;;
15466;SDS011;7834;49.452;11.056;2024-02-21T02:39:27;13.53;;;4.90;;
15466;SDS011;7834;49.452;11.056;2024-02-21T02:41:53;12.50;;;4.90;;
15466;SDS011;7834;49.452;11.056;2024-02-21T02:44:19;11.40;;;4.37;;
15466;SDS011;7834;49.452;11.056;2024-02-21T02:46:45;12.48;;;4.90;;
15466;SDS011;7834;49.452;11.056;2024-02-21T02:49:10;14.43;;;5.10;;
15466;SDS011;7834;49.452;11.056;2024-02-21T02:51:42;11.60;;;4.68;;
15466;SDS011;7834;49.452;11.056;2024-02-21T02:54:08;12.65;;;5.10;;
15466;SDS011;7834;49.452;11.056;2024-02-21T02:56:35;12.80;;;4.70;;
15466;SDS011;7834;49.452;11.056;2024-02-21T02:59:01;11.30;;;4.90;;
15466;SDS011;7834;49.452;11.056;2024-02-21T03:01:26;13.50;;;4.60;;
15466;SDS011;7834;49.452;11.056;2024-02-21T03:03:54;11.98;;;4.88;;
15466;SDS011;7834;49.452;11.056;2024-02-21T03:06:20;15.03;;;4.70;;
15466;SDS011;7834;49.452;11.056;2024-02-21T03:08:45;12.35;;;4.70;;
15466;SDS011;7834;49.452;11.056;2024-02-21T03:11:11;12.13;;;4.90;;
15466;SDS011;7834;49.452;11.056;2024-02-21T03:13:37;13.10;;;4.60;;
15466;SDS011;7834;49.452;11.056;2024-02-21T03:16:03;11.00;;;4.73;;
15466;SDS011;7834;49.452;11.056;2024-02-21T03:18:29;14.00;;;4.97;;
15466;SDS011;7834;49.452;11.056;2024-02-21T03:20:54;12.82;;;4.63;;
15466;SDS011;7834;49.452;11.056;2024-02-21T03:23:23;10.83;;;4.57;;
15466;SDS011;7834;49.452;11.056;2024-02-21T03:25:51;12.73;;;4.43;;
15466;SDS011;7834;49.452;11.056;2024-02-21T03:28:16;15.73;;;4.57;;
15466;SDS011;7834;49.452;11.056;2024-02-21T03:30:42;12.88;;;4.60;;
15466;SDS011;7834;49.452;11.056;2024-02-21T03:33:07;11.33;;;4.63;;
15466;SDS011;7834;49.452;11.056;2024-02-21T03:35:33;12.82;;;4.53;;
15466;SDS011;7834;49.452;11.056;2024-02-21T03:37:59;12.70;;;4.80;;
15466;SDS011;7834;49.452;11.056;2024-02-21T03:40:24;16.05;;;4.82;;
15466;SDS011;7834;49.452;11.056;2024-02-21T03:42:52;14.13;;;4.78;;
15466;SDS011;7834;49.452;11.056;2024-02-21T03:45:18;11.33;;;4.37;;
15466;SDS011;7834;49.452;11.056;2024-02-21T03:47:44;13.02;;;4.88;;
15466;SDS011;7834;49.452;11.056;2024-02-21T03:50:09;12.33;;;4.70;;
15466;SDS011;7834;49.452;11.056;2024-02-21T03:52:35;15.65;;;4.70;;
15466;SDS011;7834;49.452;11.056;2024-02-21T03:55:00;11.87;;;4.20;;
15466;SDS011;7834;49.452;11.056;2024-02-21T03:57:26;11.97;;;4.40;;
15466;SDS011;7834;49.452;11.056;2024-02-21T03:59:51;13.40;;;4.68;;
15466;SDS011;7834;49.452;11.056;2024-02-21T04:02:17;12.50;;;4.40;;
15466;SDS011;7834;49.452;11.056;2024-02-21T04:04:43;10.67;;;4.40;;
15466;SDS011;7834;49.452;11.056;2024-02-21T04:07:12;13.93;;;4.53;;
15466;SDS011;7834;49.452;11.056;2024-02-21T04:09:37;15.32;;;4.55;;
15466;SDS011;7834;49.452;11.056;2024-02-21T04:12:03;10.70;;;4.00;;
15466;SDS011;7834;49.452;11.056;2024-02-21T04:14:29;12.50;;;4.47;;
15466;SDS011;7834;49.452;11.056;2024-02-21T04:16:54;10.60;;;4.38;;
15466;SDS011;7834;49.452;11.056;2024-02-21T04:19:20;12.17;;;4.43;;
15466;SDS011;7834;49.452;11.056;2024-02-21T04:21:45;11.35;;;4.32;;
15466;SDS011;7834;49.452;11.056;2024-02-21T04:24:11;12.17;;;4.07;;
15466;SDS011;7834;49.452;11.056;2024-02-21T04:26:36;11.60;;;4.40;;
15466;SDS011;7834;49.452;11.056;2024-02-21T04:29:02;16.38;;;4.70;;
15466;SDS011;7834;49.452;11.056;2024-02-21T04:31:31;15.45;;;4.45;;
15466;SDS011;7834;49.452;11.056;2024-02-21T04:33:57;13.40;;;4.40;;
15466;SDS011;7834;49.452;11.056;2024-02-21T04:36:23;13.80;;;4.13;;
15466;SDS011;7834;49.452;11.056;2024-02-21T04:38:49;12.80;;;4.40;;
15466;SDS011;7834;49.452;11.056;2024-02-21T04:41:15;12.45;;;4.47;;
15466;SDS011;7834;49.452;11.056;2024-02-21T04:43:41;12.43;;;4.60;;
15466;SDS011;7834;49.452;11.056;2024-02-21T04:46:06;11.57;;;4.23;;
15466;SDS011;7834;49.452;11.056;2024-02-21T04:48:32;12.98;;;4.50;;
15466;SDS011;7834;49.452;11.056;2024-02-21T04:50:58;14.18;;;4.40;;
15466;SDS011;7834;49.452;11.056;2024-02-21T04:53:23;13.43;;;4.10;;
15466;SDS011;7834;49.452;11.056;2024-02-21T04:55:49;14.15;;;4.43;;
15466;SDS011;7834;49.452;11.056;2024-02-21T04:58:15;10.43;;;4.00;;
15466;SDS011;7834;49.452;11.056;2024-02-21T05:00:43;12.73;;;4.10;;
15466;SDS011;7834;49.452;11.056;2024-02-21T05:03:12;12.40;;;4.40;;
15466;SDS011;7834;49.452;11.056;2024-02-21T05:05:37;12.73;;;4.67;;
15466;SDS011;7834;49.452;11.056;2024-02-21T05:08:03;13.43;;;4.65;;
15466;SDS011;7834;49.452;11.056;2024-02-21T05:10:28;13.77;;;4.37;;
15466;SDS011;7834;49.452;11.056;2024-02-21T05:12:54;14.85;;;4.70;;
15466;SDS011;7834;49.452;11.056;2024-02-21T05:15:19;11.70;;;4.43;;
15466;SDS011;7834;49.452;11.056;2024-02-21T05:17:45;11.40;;;4.65;;
15466;SDS011;7834;49.452;11.056;2024-02-21T05:20:11;11.57;;;4.47;;
15466;SDS011;7834;49.452;11.056;2024-02-21T05:22:36;16.52;;;4.90;;
15466;SDS011;7834;49.452;11.056;2024-02-21T05:25:05;11.67;;;5.03;;
15466;SDS011;7834;49.452;11.056;2024-02-21T05:27:31;13.82;;;4.80;;
15466;SDS011;7834;49.452;11.056;2024-02-21T05:29:57;11.70;;;4.53;;
15466;SDS011;7834;49.452;11.056;2024-02-21T05:32:23;11.00;;;4.90;;
15466;SDS011;7834;49.452;11.056;2024-02-21T05:34:50;11.65;;;4.40;;
15466;SDS011;7834;49.452;11.056;2024-02-21T05:37:16;11.47;;;4.70;;
15466;SDS011;7834;49.452;11.056;2024-02-21T05:39:41;14.50;;;5.43;;
15466;SDS011;7834;49.452;11.056;2024-02-21T05:42:07;12.90;;;4.63;;
15466;SDS011;7834;49.452;11.056;2024-02-21T05:44:32;15.45;;;5.07;;
15466;SDS011;7834;49.452;11.056;2024-02-21T05:46:58;11.27;;;4.43;;
15466;SDS011;7834;49.452;11.056;2024-02-21T05:49:23;11.77;;;4.60;;
15466;SDS011;7834;49.452;11.056;2024-02-21T05:51:49;12.20;;;4.32;;
15466;SDS011;7834;49.452;11.056;2024-02-21T05:54:15;13.73;;;4.60;;
15466;SDS011;7834;49.452;11.056;2024-02-21T05:56:44;11.25;;;4.80;;
15466;SDS011;7834;49.452;11.056;2024-02-21T05:59:09;11.80;;;4.90;;
15466;SDS011;7834;49.452;11.056;2024-02-21T06:01:35;11.90;;;4.63;;
15466;SDS011;7834;49.452;11.056;2024-02-21T06:04:01;12.30;;;4.73;;
15466;SDS011;7834;49.452;11.056;2024-02-21T06:06:29;13.73;;;4.97;;
15466;SDS011;7834;49.452;11.056;2024-02-21T06:08:55;11.60;;;4.80;;
15466;SDS011;7834;49.452;11.056;2024-02-21T06:11:21;13.52;;;5.20;;
15466;SDS011;7834;49.452;11.056;2024-02-21T06:13:47;14.13;;;4.83;;
15466;SDS011;7834;49.452;11.056;2024-02-21T06:16:12;15.13;;;5.40;;
15466;SDS011;7834;49.452;11.056;2024-02-21T06:18:38;12.33;;;4.93;;
15466;SDS011;7834;49.452;11.056;2024-02-21T06:21:03;10.82;;;4.95;;
15466;SDS011;7834;49.452;11.056;2024-02-21T06:23:29;12.88;;;5.25;;
15466;SDS011;7834;49.452;11.056;2024-02-21T06:25:55;11.97;;;4.67;;
15466;SDS011;7834;49.452;11.056;2024-02-21T06:28:21;12.35;;;5.65;;
15466;SDS011;7834;49.452;11.056;2024-02-21T06:30:49;13.90;;;5.47;;
15466;SDS011;7834;49.452;11.056;2024-02-21T06:33:14;14.67;;;5.30;;
15466;SDS011;7834;49.452;11.056;2024-02-21T06:35:40;12.23;;;5.00;;
15466;SDS011;7834;49.452;11.056;2024-02-21T06:38:09;12.13;;;5.43;;
15466;SDS011;7834;49.452;11.056;2024-02-21T06:40:34;13.13;;;5.03;;
15466;SDS011;7834;49.452;11.056;2024-02-21T06:43:04;12.93;;;5.20;;
15466;SDS011;7834;49.452;11.056;2024-02-21T06:45:30;10.00;;;5.20;;
15466;SDS011;7834;49.452;11.056;2024-02-21T06:47:56;12.77;;;5.40;;
15466;SDS011;7834;49.452;11.056;2024-02-21T06:50:21;12.83;;;5.40;;
15466;SDS011;7834;49.452;11.056;2024-02-21T06:52:47;13.57;;;5.10;;
15466;SDS011;7834;49.452;11.056;2024-02-21T06:55:12;13.68;;;5.10;;
15466;SDS011;7834;49.452;11.056;2024-02-21T06:57:38;13.33;;;4.90;;
15466;SDS011;7834;49.452;11.056;2024-02-21T07:00:04;12.70;;;5.23;;
15466;SDS011;7834;49.452;11.056;2024-02-21T07:02:33;11.30;;;4.80;;
15466;SDS011;7834;49.452;11.056;2024-02-21T07:04:59;12.30;;;5.20;;
15466;SDS011;7834;49.452;11.056;2024-02-21T07:07:24;13.43;;;5.45;;
15466;SDS011;7834;49.452;11.056;2024-02-21T07:09:50;12.85;;;5.15;;
15466;SDS011;7834;49.452;11.056;2024-02-21T07:12:16;14.27;;;5.75;;
15466;SDS011;7834;49.452;11.056;2024-02-21T07:14:42;11.37;;;4.80;;
15466;SDS011;7834;49.452;11.056;2024-02-21T07:17:08;14.80;;;5.50;;
15466;SDS011;7834;49.452;11.056;2024-02-21T07:19:33;18.70;;;7.37;;
15466;SDS011;7834;49.452;11.056;2024-02-21T07:22:00;12.85;;;5.32;;
15466;SDS011;7834;49.452;11.056;2024-02-21T07:24:26;14.40;;;5.53;;
15466;SDS011;7834;49.452;11.056;2024-02-21T07:26:52;15.63;;;6.03;;
15466;SDS011;7834;49.452;11.056;2024-02-21T07:29:18;12.48;;;5.60;;
15466;SDS011;7834;49.452;11.056;2024-02-21T07:31:44;13.60;;;5.63;;
15466;SDS011;7834;49.452;11.056;2024-02-21T07:34:09;13.70;;;5.67;;
15466;SDS011;7834;49.452;11.056;2024-02-21T07:36:35;14.15;;;5.05;;
15466;SDS011;7834;49.452;11.056;2024-02-21T07:39:02;11.48;;;4.95;;
15466;SDS011;7834;49.452;11.056;2024-02-21T07:41:28;13.77;;;4.68;;
15466;SDS011;7834;49.452;11.056;2024-02-21T07:43:55;12.82;;;5.00;;
15466;SDS011;7834;49.452;11.056;2024-02-21T07:46:21;9.87;;;4.70;;
15466;SDS011;7834;49.452;11.056;2024-02-21T07:48:47;13.55;;;4.97;;
15466;SDS011;7834;49.452;11.056;2024-02-21T07:51:13;12.65;;;4.90;;
15466;SDS011;7834;49.452;11.056;2024-02-21T07:53:39;10.27;;;4.53;;
15466;SDS011;7834;49.452;11.056;2024-02-21T07:56:15;10.48;;;4.55;;
15466;SDS011;7834;49.452;11.056;2024-02-21T07:58:41;10.65;;;4.22;;
15466;SDS011;7834;49.452;11.056;2024-02-21T08:01:08;10.35;;;4.30;;
15466;SDS011;7834;49.452;11.056;2024-02-21T08:03:33;10.57;;;4.13;;
15466;SDS011;7834;49.452;11.056;2024-02-21T08:05:59;10.38;;;4.10;;
15466;SDS011;7834;49.452;11.056;2024-02-21T08:08:24;9.73;;;4.70;;
15466;SDS011;7834;49.452;11.056;2024-02-21T08:10:50;12.18;;;4.60;;
15466;SDS011;7834;49.452;11.056;2024-02-21T08:13:16;15.93;;;7.27;;
15466;SDS011;7834;49.452;11.056;2024-02-21T08:15:41;9.75;;;3.95;;
15466;SDS011;7834;49.452;11.056;2024-02-21T08:18:07;10.93;;;3.93;;
15466;SDS011;7834;49.452;11.056;2024-02-21T08:20:33;10.07;;;3.78;;
15466;SDS011;7834;49.452;11.056;2024-02-21T08:22:58;10.73;;;3.90;;
15466;SDS011;7834;49.452;11.056;2024-02-21T08:25:24;10.30;;;4.00;;
15466;SDS011;7834;49.452;11.056;2024-02-21T08:27:50;7.20;;;3.70;;
15466;SDS011;7834;49.452;11.056;2024-02-21T08:30:17;10.40;;;4.20;;
15466;SDS011;7834;49.452;11.056;2024-02-21T08:32:42;9.82;;;3.67;;
15466;SDS011;7834;49.452;11.056;2024-02-21T08:35:08;9.23;;;3.60;;
15466;SDS011;7834;49.452;11.056;2024-02-21T08:37:34;8.93;;;4.07;;
15466;SDS011;7834;49.452;11.056;2024-02-21T08:39:59;11.33;;;4.17;;
15466;SDS011;7834;49.452;11.056;2024-02-21T08:42:30;9.60;;;3.67;;
15466;SDS011;7834;49.452;11.056;2024-02-21T08:44:55;11.43;;;3.70;;
15466;SDS011;7834;49.452;11.056;2024-02-21T08:47:21;7.93;;;3.67;;
15466;SDS011;7834;49.452;11.056;2024-02-21T08:49:46;8.85;;;3.75;;
15466;SDS011;7834;49.452;11.056;2024-02-21T08:52:13;12.10;;;4.00;;
15466;SDS011;7834;49.452;11.056;2024-02-21T08:54:39;11.95;;;3.80;;
15466;SDS011;7834;49.452;11.056;2024-02-21T08:57:04;10.13;;;3.50;;
15466;SDS011;7834;49.452;11.056;2024-02-21T08:59:30;10.35;;;3.60;;
15466;SDS011;7834;49.452;11.056;2024-02-21T09:01:56;8.17;;;3.37;;
15466;SDS011;7834;49.452;11.056;2024-02-21T09:04:21;9.35;;;3.67;;
15466;SDS011;7834;49.452;11.056;2024-02-21T09:06:47;9.60;;;3.40;;
15466;SDS011;7834;49.452;11.056;2024-02-21T09:09:12;8.43;;;3.38;;
15466;SDS011;7834;49.452;11.056;2024-02-21T09:11:38;9.38;;;3.70;;
15466;SDS011;7834;49.452;11.056;2024-02-21T09:14:05;10.32;;;3.40;;
15466;SDS011;7834;49.452;11.056;2024-02-21T09:16:33;7.43;;;3.13;;
15466;SDS011;7834;49.452;11.056;2024-02-21T09:18:59;20.45;;;11.20;;
15466;SDS011;7834;49.452;11.056;2024-02-21T09:21:25;8.52;;;3.33;;
15466;SDS011;7834;49.452;11.056;2024-02-21T09:23:51;9.75;;;3.30;;
15466;SDS011;7834;49.452;11.056;2024-02-21T09:26:17;7.07;;;3.13;;
15466;SDS011;7834;49.452;11.056;2024-02-21T09:28:43;7.43;;;3.47;;
15466;SDS011;7834;49.452;11.056;2024-02-21T09:31:08;8.98;;;3.28;;
15466;SDS011;7834;49.452;11.056;2024-02-21T09:33:34;8.67;;;3.20;;
15466;SDS011;7834;49.452;11.056;2024-02-21T09:36:00;10.45;;;3.55;;
15466;SDS011;7834;49.452;11.056;2024-02-21T09:38:26;10.18;;;3.67;;
15466;SDS011;7834;49.452;11.056;2024-02-21T09:41:34;8.23;;;3.50;;
15466;SDS011;7834;49.452;11.056;2024-02-21T09:43:42;8.45;;;3.50;;
15466;SDS011;7834;49.452;11.056;2024-02-21T09:46:08;8.00;;;3.60;;
15466;SDS011;7834;49.452;11.056;2024-02-21T09:48:42;8.77;;;3.35;;
15466;SDS011;7834;49.452;11.056;2024-02-21T09:51:13;8.13;;;3.33;;
15466;SDS011;7834;49.452;11.056;2024-02-21T09:53:39;9.68;;;3.20;;
15466;SDS011;7834;49.452;11.056;2024-02-21T09:56:07;9.25;;;3.50;;
15466;SDS011;7834;49.452;11.056;2024-02-21T09:58:33;11.05;;;3.55;;
15466;SDS011;7834;49.452;11.056;2024-02-21T10:00:59;7.80;;;3.13;;
15466;SDS011;7834;49.452;11.056;2024-02-21T10:03:25;9.27;;;3.53;;
15466;SDS011;7834;49.452;11.056;2024-02-21T10:05:51;8.83;;;3.50;;
15466;SDS011;7834;49.452;11.056;2024-02-21T10:08:16;10.57;;;3.47;;
15466;SDS011;7834;49.452;11.056;2024-02-21T10:10:43;9.05;;;3.67;;
15466;SDS011;7834;49.452;11.056;2024-02-21T10:13:10;9.55;;;3.38;;
15466;SDS011;7834;49.452;11.056;2024-02-21T10:15:35;10.32;;;3.50;;
15466;SDS011;7834;49.452;11.056;2024-02-21T10:18:01;7.03;;;2.80;;
15466;SDS011;7834;49.452;11.056;2024-02-21T10:20:28;6.68;;;3.05;;
15466;SDS011;7834;49.452;11.056;2024-02-21T10:23:04;7.80;;;3.07;;
15466;SDS011;7834;49.452;11.056;2024-02-21T10:25:34;7.50;;;2.70;;
15466;SDS011;7834;49.452;11.056;2024-02-21T10:27:59;9.23;;;3.25;;
15466;SDS011;7834;49.452;11.056;2024-02-21T10:30:25;9.55;;;3.60;;
15466;SDS011;7834;49.452;11.056;2024-02-21T10:32:51;10.03;;;3.23;;
15466;SDS011;7834;49.452;11.056;2024-02-21T10:35:29;8.63;;;3.05;;
15466;SDS011;7834;49.452;11.056;2024-02-21T10:37:58;7.32;;;3.17;;
15466;SDS011;7834;49.452;11.056;2024-02-21T10:40:24;7.72;;;3.58;;
15466;SDS011;7834;49.452;11.056;2024-02-21T10:42:52;9.88;;;4.63;;
15466;SDS011;7834;49.452;11.056;2024-02-21T10:45:23;8.00;;;3.50;;
15466;SDS011;7834;49.452;11.056;2024-02-21T10:47:54;9.05;;;3.40;;
15466;SDS011;7834;49.452;11.056;2024-02-21T10:50:21;7.65;;;3.20;;
15466;SDS011;7834;49.452;11.056;2024-02-21T10:52:51;9.43;;;3.35;;
15466;SDS011;7834;49.452;11.056;2024-02-21T10:55:20;9.60;;;3.20;;
15466;SDS011;7834;49.452;11.056;2024-02-21T10:57:46;7.88;;;3.30;;
15466;SDS011;7834;49.452;11.056;2024-02-21T11:00:13;7.20;;;2.83;;
15466;SDS011;7834;49.452;11.056;2024-02-21T11:02:40;9.25;;;2.97;;
15466;SDS011;7834;49.452;11.056;2024-02-21T11:05:06;7.80;;;3.10;;
15466;SDS011;7834;49.452;11.056;2024-02-21T11:07:32;7.10;;;3.13;;
15466;SDS011;7834;49.452;11.056;2024-02-21T11:09:58;7.78;;;3.25;;
15466;SDS011;7834;49.452;11.056;2024-02-21T11:12:25;8.10;;;3.00;;
15466;SDS011;7834;49.452;11.056;2024-02-21T11:15:03;7.80;;;3.57;;
15466;SDS011;7834;49.452;11.056;2024-02-21T11:17:29;7.32;;;3.10;;
15466;SDS011;7834;49.452;11.056;2024-02-21T11:19:55;6.83;;;2.90;;
15466;SDS011;7834;49.452;11.056;2024-02-21T11:22:24;9.05;;;3.38;;
15466;SDS011;7834;49.452;11.056;2024-02-21T11:24:54;7.07;;;2.85;;
15466;SDS011;7834;49.452;11.056;2024-02-21T11:27:21;7.13;;;2.95;;
15466;SDS011;7834;49.452;11.056;2024-02-21T11:29:48;8.70;;;3.75;;
15466;SDS011;7834;49.452;11.056;2024-02-21T11:32:17;8.93;;;4.00;;
15466;SDS011;7834;49.452;11.056;2024-02-21T11:37:19;7.90;;;3.03;;
15466;SDS011;7834;49.452;11.056;2024-02-21T11:39:44;7.22;;;3.22;;
15466;SDS011;7834;49.452;11.056;2024-02-21T11:42:10;8.43;;;3.90;;
15466;SDS011;7834;49.452;11.056;2024-02-21T11:44:38;7.05;;;2.95;;
15466;SDS011;7834;49.452;11.056;2024-02-21T11:47:04;7.28;;;3.20;;
15466;SDS011;7834;49.452;11.056;2024-02-21T11:49:30;9.00;;;3.33;;
15466;SDS011;7834;49.452;11.056;2024-02-21T11:52:02;8.17;;;3.40;;
15466;SDS011;7834;49.452;11.056;2024-02-21T11:54:30;7.72;;;2.72;;
15466;SDS011;7834;49.452;11.056;2024-02-21T11:56:55;7.82;;;3.78;;
15466;SDS011;7834;49.452;11.056;2024-02-21T11:59:21;7.60;;;2.83;;
15466;SDS011;7834;49.452;11.056;2024-02-21T12:01:47;7.47;;;3.10;;
15466;SDS011;7834;49.452;11.056;2024-02-21T12:04:12;7.38;;;2.90;;
15466;SDS011;7834;49.452;11.056;2024-02-21T12:06:38;6.10;;;2.77;;
15466;SDS011;7834;49.452;11.056;2024-02-21T12:09:07;6.63;;;3.08;;
15466;SDS011;7834;49.452;11.056;2024-02-21T12:11:34;8.40;;;2.70;;
15466;SDS011;7834;49.452;11.056;2024-02-21T12:16:27;9.70;;;2.95;;
15466;SDS011;7834;49.452;11.056;2024-02-21T12:18:53;6.80;;;2.80;;
15466;SDS011;7834;49.452;11.056;2024-02-21T12:21:18;6.73;;;2.90;;
15466;SDS011;7834;49.452;11.056;2024-02-21T12:23:44;7.78;;;2.78;;
15466;SDS011;7834;49.452;11.056;2024-02-21T12:26:12;6.57;;;2.73;;
15466;SDS011;7834;49.452;11.056;2024-02-21T12:28:38;8.73;;;3.08;;
15466;SDS011;7834;49.452;11.056;2024-02-21T12:31:03;6.93;;;2.80;;
15466;SDS011;7834;49.452;11.056;2024-02-21T12:33:30;7.53;;;3.63;;
15466;SDS011;7834;49.452;11.056;2024-02-21T12:35:55;5.43;;;2.42;;
15466;SDS011;7834;49.452;11.056;2024-02-21T12:38:21;8.48;;;2.75;;
15466;SDS011;7834;49.452;11.056;2024-02-21T12:40:47;5.88;;;2.90;;
15466;SDS011;7834;49.452;11.056;2024-02-21T12:43:13;7.33;;;2.60;;
15466;SDS011;7834;49.452;11.056;2024-02-21T12:45:38;7.18;;;2.50;;
15466;SDS011;7834;49.452;11.056;2024-02-21T12:48:04;5.75;;;2.42;;
15466;SDS011;7834;49.452;11.056;2024-02-21T12:50:30;4.85;;;2.20;;
15466;SDS011;7834;49.452;11.056;2024-02-21T12:52:56;6.32;;;2.53;;
15466;SDS011;7834;49.452;11.056;2024-02-21T12:55:23;6.37;;;2.40;;
15466;SDS011;7834;49.452;11.056;2024-02-21T12:57:49;5.95;;;2.47;;
15466;SDS011;7834;49.452;11.056;2024-02-21T13:00:15;4.93;;;2.42;;
15466;SDS011;7834;49.452;11.056;2024-02-21T13:02:41;5.80;;;2.40;;
15466;SDS011;7834;49.452;11.056;2024-02-21T13:05:08;5.05;;;2.20;;
15466;SDS011;7834;49.452;11.056;2024-02-21T13:07:34;7.13;;;2.90;;
15466;SDS011;7834;49.452;11.056;2024-02-21T13:10:00;6.63;;;2.67;;
15466;SDS011;7834;49.452;11.056;2024-02-21T13:12:25;5.75;;;2.70;;
15466;SDS011;7834;49.452;11.056;2024-02-21T13:14:55;6.30;;;2.42;;
15466;SDS011;7834;49.452;11.056;2024-02-21T13:17:21;6.05;;;2.67;;
15466;SDS011;7834;49.452;11.056;2024-02-21T13:19:47;6.13;;;2.33;;
15466;SDS011;7834;49.452;11.056;2024-02-21T13:22:13;5.70;;;2.37;;
15466;SDS011;7834;49.452;11.056;2024-02-21T13:24:39;5.20;;;2.25;;
15466;SDS011;7834;49.452;11.056;2024-02-21T13:27:04;5.07;;;2.00;;
15466;SDS011;7834;49.452;11.056;2024-02-21T13:29:30;5.88;;;2.15;;
15466;SDS011;7834;49.452;11.056;2024-02-21T13:31:57;5.50;;;2.35;;
15466;SDS011;7834;49.452;11.056;2024-02-21T13:34:22;4.47;;;2.40;;
15466;SDS011;7834;49.452;11.056;2024-02-21T13:36:48;4.90;;;1.98;;
15466;SDS011;7834;49.452;11.056;2024-02-21T13:39:13;6.45;;;2.03;;
15466;SDS011;7834;49.452;11.056;2024-02-21T13:41:41;4.25;;;1.98;;
15466;SDS011;7834;49.452;11.056;2024-02-21T13:44:07;4.20;;;2.20;;
15466;SDS011;7834;49.452;11.056;2024-02-21T13:46:34;4.07;;;2.10;;
15466;SDS011;7834;49.452;11.056;2024-02-21T13:49:04;5.55;;;2.63;;
15466;SDS011;7834;49.452;11.056;2024-02-21T13:51:30;4.10;;;1.90;;
15466;SDS011;7834;49.452;11.056;2024-02-21T13:53:56;7.88;;;4.88;;
15466;SDS011;7834;49.452;11.056;2024-02-21T13:56:22;5.07;;;3.10;;
15466;SDS011;7834;49.452;11.056;2024-02-21T13:58:48;4.63;;;2.00;;
15466;SDS011;7834;49.452;11.056;2024-02-21T14:01:13;4.10;;;2.00;;
15466;SDS011;7834;49.452;11.056;2024-02-21T14:03:39;6.68;;;2.22;;
15466;SDS011;7834;49.452;11.056;2024-02-21T14:06:04;3.17;;;1.93;;
15466;SDS011;7834;49.452;11.056;2024-02-21T14:08:30;5.40;;;2.22;;
15466;SDS011;7834;49.452;11.056;2024-02-21T14:10:56;4.90;;;2.00;;
15466;SDS011;7834;49.452;11.056;2024-02-21T14:13:24;4.05;;;1.98;;
15466;SDS011;7834;49.452;11.056;2024-02-21T14:15:50;4.53;;;2.00;;
15466;SDS011;7834;49.452;11.056;2024-02-21T14:18:15;6.00;;;1.80;;
15466;SDS011;7834;49.452;11.056;2024-02-21T14:20:42;4.68;;;2.20;;
15466;SDS011;7834;49.452;11.056;2024-02-21T14:23:08;4.73;;;2.17;;
15466;SDS011;7834;49.452;11.056;2024-02-21T14:25:35;4.95;;;2.03;;
15466;SDS011;7834;49.452;11.056;2024-02-21T14:28:01;3.97;;;2.07;;
15466;SDS011;7834;49.452;11.056;2024-02-21T14:30:27;3.67;;;1.92;;
15466;SDS011;7834;49.452;11.056;2024-02-21T14:32:53;4.07;;;2.00;;
15466;SDS011;7834;49.452;11.056;2024-02-21T14:35:19;4.40;;;1.80;;
15466;SDS011;7834;49.452;11.056;2024-02-21T14:37:45;5.70;;;2.20;;
15466;SDS011;7834;49.452;11.056;2024-02-21T14:40:11;5.60;;;2.10;;
15466;SDS011;7834;49.452;11.056;2024-02-21T14:42:37;3.43;;;1.80;;